Time;durP1;ratioP1;P1;durP2;ratioP2;P2;SDS_P1;SDS_P2;PMS_P1;PMS_P2;Temp;Humidity;BMP_temperature;BMP_pressure;BME280_temperature;BME280_humidity;BME280_pressure;Samples;Min_cycle;Max_cycle;Signal;HPM_P1;HPM_P2
2022/11/17 00:02:01;;;;;;;30.83;17.05;;;;;;;10.30;69.23;98310.81;7765679;32;40521;-91
2022/11/17 00:06:21;;;;;;;34.55;19.15;;;;;;;10.60;67.96;98308.53;7765296;32;37942;-90
2022/11/17 00:10:37;;;;;;;38.10;19.85;;;;;;;10.27;68.93;98300.53;7764936;32;37769;-90
2022/11/17 00:14:53;;;;;;;32.13;18.90;;;;;;;10.36;68.54;98304.16;7765254;32;39391;-90
2022/11/17 00:23:48;;;;;;;35.60;19.83;;;;;;;10.28;68.45;98305.66;7765125;32;38053;-90
2022/11/17 00:28:05;;;;;;;35.08;19.48;;;;;;;10.10;69.18;98299.22;7764322;32;36940;-90
2022/11/17 00:36:56;;;;;;;37.60;20.15;;;;;;;9.66;70.29;98306.12;7764898;32;40597;-90
2022/11/17 00:41:12;;;;;;;41.47;20.50;;;;;;;10.01;69.89;98308.44;7750928;32;38403;-91
2022/11/17 00:45:28;;;;;;;41.63;21.25;;;;;;;9.84;70.11;98285.34;7764587;32;37485;-91
2022/11/17 00:49:45;;;;;;;33.40;19.12;;;;;;;10.02;69.44;98289.09;7764502;32;39297;-90
2022/11/17 00:54:01;;;;;;;39.17;21.23;;;;;;;9.74;70.46;98285.56;7764743;32;40031;-90
2022/11/17 00:58:17;;;;;;;37.15;20.42;;;;;;;9.93;69.61;98286.28;7764385;32;38515;-91
2022/11/17 01:02:33;;;;;;;39.58;19.75;;;;;;;8.86;74.01;98289.06;7763624;32;37792;-90
2022/11/17 01:06:50;;;;;;;42.72;20.98;;;;;;;9.54;71.28;98286.78;7764512;32;39109;-90
2022/11/17 01:11:17;;;;;;;37.03;17.87;;;;;;;9.30;72.29;98284.25;7764359;32;40871;-88
2022/11/17 01:15:34;;;;;;;39.97;19.75;;;;;;;9.31;73.79;98267.62;7763956;32;37604;-90
2022/11/17 01:19:50;;;;;;;39.30;20.02;;;;;;;9.29;72.62;98271.75;7764293;32;37253;-91
2022/11/17 01:24:06;;;;;;;40.70;21.40;;;;;;;9.29;72.12;98267.09;7764247;32;39508;-91
2022/11/17 01:28:23;;;;;;;36.70;20.48;;;;;;;9.25;72.64;98262.56;7763736;32;40039;-91
2022/11/17 01:32:39;;;;;;;46.08;21.67;;;;;;;9.25;72.63;98270.75;7763956;32;38734;-90
2022/11/17 01:41:30;;;;;;;42.65;20.05;;;;;;;9.10;73.17;98263.66;7763893;32;40095;-90
2022/11/17 01:45:46;;;;;;;37.05;19.23;;;;;;;9.13;73.12;98257.63;7763446;32;40114;-91
2022/11/17 01:50:11;;;;;;;38.17;19.23;;;;;;;8.36;75.41;98250.69;7763370;32;38823;-91
2022/11/17 01:54:28;;;;;;;42.03;21.27;;;;;;;8.82;73.75;98250.00;7763672;32;37128;-91
2022/11/17 01:58:53;;;;;;;40.50;20.83;;;;;;;9.12;72.76;98245.12;7748915;32;39280;-90
2022/11/17 02:03:09;;;;;;;41.03;21.05;;;;;;;8.28;76.31;98269.28;7749650;32;40845;-90
2022/11/17 02:07:31;;;;;;;38.30;20.17;;;;;;;8.45;75.18;98284.25;7748764;32;37596;-88
2022/11/17 02:11:48;;;;;;;42.13;20.75;;;;;;;8.68;73.94;98288.00;7763328;32;37594;-90
2022/11/17 02:16:05;;;;;;;38.45;20.90;;;;;;;8.58;75.05;98280.81;7766566;32;40073;-90
2022/11/17 02:20:27;;;;;;;42.20;20.83;;;;;;;8.78;74.42;98276.16;7753204;32;39665;-90
2022/11/17 02:24:52;;;;;;;35.55;20.20;;;;;;;8.72;74.36;98263.75;7758738;32;262412;-90
2022/11/17 02:29:40;;;;;;;42.67;20.40;;;;;;;8.96;73.13;98274.50;7765768;32;37972;-90
2022/11/17 02:34:18;;;;;;;38.97;19.87;;;;;;;9.15;72.47;98277.94;7754380;32;39330;-90
2022/11/17 02:38:54;;;;;;;37.20;19.70;;;;;;;9.19;72.05;98261.84;7766223;32;40090;-90
2022/11/17 02:47:53;;;;;;;37.05;19.23;;;;;;;9.20;71.84;98247.16;7755141;32;37197;-92
2022/11/17 02:52:10;;;;;;;35.05;19.15;;;;;;;9.36;71.27;98251.19;7752497;32;39320;-91
2022/11/17 02:56:26;;;;;;;35.35;18.87;;;;;;;9.14;71.40;98237.47;7752151;32;40029;-91
2022/11/17 03:01:22;;;;;;;35.25;18.65;;;;;;;9.64;70.06;98229.44;7766342;32;38658;-91
2022/11/17 03:05:59;;;;;;;32.00;17.70;;;;;;;9.64;70.04;98242.22;7764391;32;37315;-90
2022/11/17 03:10:25;;;;;;;33.33;18.40;;;;;;;9.72;69.60;98241.53;7766212;32;39088;-90
2022/11/17 03:14:50;;;;;;;32.20;17.98;;;;;;;9.38;70.08;98229.12;7766987;32;40979;-90
2022/11/17 03:19:32;;;;;;;34.53;18.02;;;;;;;9.45;70.38;98204.25;7765825;32;37816;-91
2022/11/17 03:24:04;;;;;;;34.90;18.30;;;;;;;9.74;69.10;98210.19;7766272;32;37380;-91
2022/11/17 03:28:26;;;;;;;33.03;16.80;;;;;;;9.58;69.29;98219.75;7766109;32;39246;-91
2022/11/17 03:32:47;;;;;;;32.58;16.58;;;;;;;9.30;70.15;98218.97;7766275;32;40043;-91
2022/11/17 03:37:06;;;;;;;36.25;17.73;;;;;;;9.70;68.75;98217.34;7752947;32;37881;-91
2022/11/17 03:41:22;;;;;;;34.97;18.10;;;;;;;9.51;69.59;98220.16;7768324;32;36805;-91
2022/11/17 03:45:42;;;;;;;38.22;18.52;;;;;;;9.50;69.56;98226.72;7754917;32;39578;-90
2022/11/17 03:50:14;;;;;;;35.58;19.00;;;;;;;8.88;71.04;98239.84;7768146;32;40793;-91
2022/11/17 03:54:30;;;;;;;36.70;17.73;;;;;;;9.06;71.46;98246.34;7766591;32;37967;-91
2022/11/17 03:58:58;;;;;;;34.00;17.23;;;;;;;8.80;72.07;98249.50;7765764;32;37282;-91
2022/11/17 04:03:15;;;;;;;31.20;17.92;;;;;;;8.46;73.28;98256.00;7753147;32;39500;-90
2022/11/17 04:07:31;;;;;;;38.58;19.33;;;;;;;8.40;73.81;98252.53;7755448;32;39824;-91
2022/11/17 04:16:23;;;;;;;39.42;18.67;;;;;;;8.01;75.78;98253.63;7766674;32;37161;-91
2022/11/17 04:20:39;;;;;;;39.08;19.02;;;;;;;8.17;75.18;98248.78;7767232;32;39394;-92
2022/11/17 04:24:55;;;;;;;41.65;20.75;;;;;;;8.04;75.05;98250.34;7766792;32;39965;-90
2022/11/17 04:29:11;;;;;;;41.78;19.85;;;;;;;7.92;75.89;98254.56;7766809;32;37546;-91
2022/11/17 04:33:27;;;;;;;40.10;19.12;;;;;;;7.81;76.31;98252.00;7765468;32;36852;-91
2022/11/17 04:37:44;;;;;;;44.58;21.83;;;;;;;7.77;76.32;98256.37;7764680;32;39394;-91
2022/11/17 04:42:03;;;;;;;42.08;21.23;;;;;;;7.56;77.63;98263.16;7765924;32;40928;-91
2022/11/17 04:46:21;;;;;;;41.45;21.48;;;;;;;7.98;76.28;98253.41;7765141;32;37551;-90
2022/11/17 04:50:37;;;;;;;38.70;20.58;;;;;;;8.27;75.20;98264.94;7765100;32;38104;-91
2022/11/17 04:54:53;;;;;;;43.47;20.12;;;;;;;8.71;73.49;98254.81;7740427;32;40532;-90
2022/11/17 04:59:10;;;;;;;36.47;18.70;;;;;;;8.28;74.59;98263.84;7738671;32;40892;-90
2022/11/17 05:03:26;;;;;;;39.20;19.27;;;;;;;8.81;72.69;98267.41;7750938;32;38702;-91
2022/11/17 05:07:43;;;;;;;41.47;20.10;;;;;;;8.65;72.74;98264.94;7724803;32;35956;-91
2022/11/17 05:21:10;;;;;;;43.15;19.02;;;;;;;8.95;71.90;98273.69;7754946;32;37728;-90
2022/11/17 05:25:39;;;;;;;40.08;19.95;;;;;;;9.09;71.27;98270.19;7742517;32;36083;-91
2022/11/17 05:29:56;;;;;;;36.03;18.70;;;;;;;9.37;70.20;98266.41;7751139;32;38975;-90
2022/11/17 05:34:14;;;;;;;38.80;19.30;;;;;;;9.39;69.95;98264.19;7738845;32;39061;-91
2022/11/17 05:38:30;;;;;;;35.95;18.87;;;;;;;9.37;70.05;98274.56;7751084;32;37469;-91
2022/11/17 05:42:46;;;;;;;37.63;19.08;;;;;;;9.41;69.97;98277.50;7752027;32;38083;-91
2022/11/17 05:47:09;;;;;;;35.42;18.52;;;;;;;9.46;69.66;98276.59;7766830;32;39705;-91
2022/11/17 05:51:25;;;;;;;38.95;19.35;;;;;;;9.14;70.40;98280.97;7768916;32;40067;-91
2022/11/17 05:55:41;;;;;;;39.05;19.60;;;;;;;9.10;70.37;98272.59;7740844;32;38730;-91
2022/11/17 06:00:00;;;;;;;36.25;18.83;;;;;;;9.44;69.29;98281.53;7754792;32;37247;-90
2022/11/17 06:04:18;;;;;;;35.35;17.83;;;;;;;9.47;69.10;98278.19;7741521;32;39273;-90
2022/11/17 06:08:35;;;;;;;38.65;18.42;;;;;;;9.26;69.87;98288.66;7767069;32;40031;-91
2022/11/17 06:12:52;;;;;;;29.42;15.90;;;;;;;9.44;69.09;98289.69;7753985;32;37832;-91
2022/11/17 06:17:19;;;;;;;32.80;16.83;;;;;;;9.65;68.37;98296.34;7768154;32;37345;-91
2022/11/17 06:21:37;;;;;;;31.48;16.95;;;;;;;9.12;69.28;98297.56;7767819;32;39319;-91
2022/11/17 06:26:14;;;;;;;38.65;17.95;;;;;;;8.64;71.70;98300.53;7767006;32;40260;-92
2022/11/17 06:30:30;;;;;;;32.30;16.73;;;;;;;8.64;72.42;98304.09;7754312;32;37936;-90
2022/11/17 06:34:48;;;;;;;31.58;17.12;;;;;;;8.75;71.73;98298.50;7768328;32;37378;-91
2022/11/17 06:39:10;;;;;;;34.58;18.42;;;;;;;8.16;73.63;98315.06;7767402;32;40267;-92
2022/11/17 06:43:26;;;;;;;32.42;17.15;;;;;;;7.74;75.84;98318.56;7770583;32;39980;-90
2022/11/17 06:47:43;;;;;;;36.17;19.05;;;;;;;8.23;73.95;98317.41;7770958;32;37964;-91
2022/11/17 06:51:59;;;;;;;34.85;17.83;;;;;;;7.74;74.91;98330.22;7767719;32;37275;-92
2022/11/17 06:56:17;;;;;;;39.28;19.67;;;;;;;7.66;75.59;98330.88;7768846;32;39292;-91
2022/11/17 07:00:34;;;;;;;35.08;17.23;;;;;;;7.60;75.85;98334.72;7767090;32;39908;-92
2022/11/17 07:04:50;;;;;;;35.17;18.15;;;;;;;8.24;73.76;98330.69;7767290;32;37751;-92
2022/11/17 07:09:07;;;;;;;35.70;19.37;;;;;;;7.78;75.46;98328.56;7766328;32;37216;-91
2022/11/17 07:13:24;;;;;;;37.28;18.23;;;;;;;8.32;73.27;98323.78;7765666;32;40621;-88
2022/11/17 07:17:40;;;;;;;33.22;17.98;;;;;;;8.25;73.36;98320.62;7765917;32;40846;-86
2022/11/17 07:21:56;;;;;;;35.63;17.50;;;;;;;9.07;77.09;98329.50;7764333;32;37920;-90
2022/11/17 07:26:13;;;;;;;32.55;16.92;;;;;;;9.29;72.11;98326.94;7751975;32;37818;-88
2022/11/17 07:30:29;;;;;;;32.00;17.05;;;;;;;9.37;69.52;98315.38;7751294;32;39418;-92
2022/11/17 07:34:46;;;;;;;33.28;17.90;;;;;;;9.21;69.50;98314.03;7751770;32;40452;-91
2022/11/17 07:39:03;;;;;;;33.38;18.40;;;;;;;8.51;72.63;98307.53;7765669;32;37975;-89
2022/11/17 07:43:20;;;;;;;32.97;16.87;;;;;;;9.01;70.68;98317.91;7765243;32;36911;-86
2022/11/17 07:47:36;;;;;;;30.65;16.80;;;;;;;9.20;70.80;98313.22;7765154;32;39467;-90
2022/11/17 07:51:53;;;;;;;35.38;17.52;;;;;;;8.61;71.55;98318.25;7765101;32;39852;-90
2022/11/17 07:56:10;;;;;;;33.85;16.52;;;;;;;8.49;72.09;98317.09;7765079;32;38630;-90
2022/11/17 08:00:29;;;;;;;31.35;17.17;;;;;;;9.09;70.82;98316.41;7765393;32;37517;-92
2022/11/17 08:04:45;;;;;;;30.08;15.70;;;;;;;8.97;70.58;98319.59;7740468;32;39098;-90
2022/11/17 08:09:02;;;;;;;34.47;17.02;;;;;;;9.19;69.44;98327.09;7765105;32;40813;-90
2022/11/17 08:13:21;;;;;;;29.95;16.92;;;;;;;9.06;70.25;98325.97;7767229;32;37922;-93
2022/11/17 08:17:40;;;;;;;34.63;17.55;;;;;;;8.77;70.71;98328.88;7767502;32;37675;-90
2022/11/17 08:21:56;;;;;;;33.15;17.02;;;;;;;8.18;73.24;98331.84;7766564;32;39217;-91
2022/11/17 08:26:12;;;;;;;34.85;18.67;;;;;;;8.44;72.57;98345.91;7772063;32;39992;-86
2022/11/17 08:30:32;;;;;;;32.67;17.73;;;;;;;7.93;74.37;98351.16;7770326;32;39065;-91
2022/11/17 08:34:48;;;;;;;30.80;16.17;;;;;;;8.43;72.78;98343.50;7764532;32;37883;-90
2022/11/17 08:39:05;;;;;;;38.17;18.62;;;;;;;8.33;72.22;98346.31;7764433;32;40080;-88
2022/11/17 08:43:21;;;;;;;31.85;18.02;;;;;;;8.08;73.26;98353.69;7759364;32;39995;-89
2022/11/17 08:47:37;;;;;;;32.85;16.90;;;;;;;8.54;72.61;98349.63;7763878;32;38431;-89
2022/11/17 08:51:54;;;;;;;30.35;16.20;;;;;;;8.47;72.94;98352.69;7779548;32;37857;-88
2022/11/17 08:56:11;;;;;;;32.95;17.55;;;;;;;8.48;72.21;98367.88;7791109;32;39540;-89
2022/11/17 09:00:27;;;;;;;35.75;17.52;;;;;;;8.78;70.89;98360.41;7789328;32;39705;-89
2022/11/17 09:04:44;;;;;;;34.25;16.27;;;;;;;8.61;71.93;98369.06;7782584;32;37737;-86
2022/11/17 09:09:01;;;;;;;31.62;16.52;;;;;;;8.78;71.48;98374.00;7791516;32;37330;-91
2022/11/17 09:13:18;;;;;;;35.35;16.60;;;;;;;8.84;71.26;98384.47;7781568;32;40336;-90
2022/11/17 09:17:34;;;;;;;32.22;17.12;;;;;;;8.33;72.62;98392.47;7763802;32;39988;-89
2022/11/17 09:21:50;;;;;;;31.87;16.33;;;;;;;8.23;72.17;98405.09;7748954;32;37826;-89
2022/11/17 09:26:09;;;;;;;28.75;16.08;;;;;;;8.76;71.27;98400.63;7763045;32;37411;-86
2022/11/17 09:30:25;;;;;;;31.10;15.77;;;;;;;8.90;70.24;98396.09;7763612;32;39754;-90
2022/11/17 09:34:41;;;;;;;28.58;14.30;;;;;;;9.17;69.79;98389.12;7762603;32;39872;-88
2022/11/17 09:38:58;;;;;;;25.02;14.77;;;;;;;9.11;69.80;98398.50;7763130;32;37960;-89
2022/11/17 09:43:34;;;;;;;32.45;16.75;;;;;;;8.38;72.21;98395.97;7760754;32;38543;-90
2022/11/17 09:48:09;;;;;;;25.48;14.52;;;;;;;8.52;71.61;98400.69;7762858;32;39458;-88
2022/11/17 09:53:11;;;;;;;27.70;14.95;;;;;;;8.45;72.65;98384.75;7750004;32;40324;-87
2022/11/17 09:57:33;;;;;;;22.55;13.18;;;;;;;8.83;70.42;98379.34;7749115;32;37963;-87
2022/11/17 10:01:49;;;;;;;25.95;13.57;;;;;;;8.60;71.94;98381.81;7762323;32;37831;-85
2022/11/17 10:06:28;;;;;;;22.75;12.68;;;;;;;8.77;70.18;98385.94;7762311;32;40171;-85
2022/11/17 10:10:47;;;;;;;25.50;13.77;;;;;;;9.36;68.74;98372.78;7772163;32;40878;-85
2022/11/17 10:15:47;;;;;;;25.75;13.02;;;;;;;9.59;67.70;98366.38;7757040;32;37938;-92
2022/11/17 10:20:14;;;;;;;24.08;13.52;;;;;;;9.72;67.32;98366.69;7727882;32;36863;-90
2022/11/17 10:24:42;;;;;;;26.70;13.50;;;;;;;9.00;69.83;98367.91;7737463;32;40041;-92
2022/11/17 10:29:12;;;;;;;28.75;13.98;;;;;;;9.22;68.68;98370.03;7766917;32;39887;-93
2022/11/17 10:33:44;;;;;;;22.77;13.00;;;;;;;9.56;68.46;98371.63;7765224;32;37945;-92
2022/11/17 10:38:12;;;;;;;23.45;12.20;;;;;;;10.05;66.94;98370.13;7766080;32;37279;-91
2022/11/17 10:42:28;;;;;;;23.52;12.32;;;;;;;9.76;66.69;98378.59;7768699;32;40106;-94
2022/11/17 10:46:54;;;;;;;23.17;12.27;;;;;;;9.23;68.77;98377.09;7750817;32;39808;-89
2022/11/17 10:51:18;;;;;;;20.08;11.73;;;;;;;9.62;67.14;98375.06;7766279;32;36284;-89
2022/11/17 10:55:35;;;;;;;21.45;11.93;;;;;;;10.07;65.77;98381.56;7766188;32;37547;-89
2022/11/17 10:59:56;;;;;;;22.70;12.48;;;;;;;10.33;64.98;98375.59;7754607;32;39357;-85
2022/11/17 11:04:31;;;;;;;21.37;12.37;;;;;;;10.11;65.04;98379.81;7756932;32;40844;-91
2022/11/17 11:09:02;;;;;;;21.85;11.80;;;;;;;10.72;63.70;98368.75;7751118;32;38627;-90
2022/11/17 11:13:24;;;;;;;20.85;12.07;;;;;;;10.78;63.79;98375.72;7769487;32;37217;-90
2022/11/17 11:17:40;;;;;;;19.95;12.68;;;;;;;10.49;64.60;98376.87;7770615;32;39991;-90
2022/11/17 11:22:11;;;;;;;18.10;10.77;;;;;;;10.79;63.64;98377.31;7766759;32;39894;-90
2022/11/17 11:26:40;;;;;;;21.70;11.52;;;;;;;11.06;63.61;98381.06;7769769;32;38217;-88
2022/11/17 11:31:29;;;;;;;18.60;11.23;;;;;;;10.22;65.78;98364.06;7754472;32;37278;-89
2022/11/17 11:36:03;;;;;;;18.25;10.88;;;;;;;11.05;63.72;98360.34;7764820;32;38993;-90
2022/11/17 11:40:40;;;;;;;19.25;10.75;;;;;;;10.35;65.21;98370.66;7764891;32;39747;-89
2022/11/17 11:45:18;;;;;;;20.73;10.60;;;;;;;10.21;65.58;98358.94;7753770;32;37841;-85
2022/11/17 11:49:40;;;;;;;17.27;10.60;;;;;;;10.62;64.20;98360.81;7773194;32;37586;-89
2022/11/17 11:54:00;;;;;;;19.27;11.20;;;;;;;10.12;65.35;98356.94;7751905;32;39278;-90
2022/11/17 11:58:23;;;;;;;17.37;10.43;;;;;;;9.90;66.01;98345.94;7765073;32;39980;-87
2022/11/17 12:03:04;;;;;;;15.40;9.70;;;;;;;10.81;63.12;98349.75;7764944;32;38365;-90
2022/11/17 12:07:32;;;;;;;16.20;9.40;;;;;;;11.18;61.14;98356.78;7758535;32;38123;-89
2022/11/17 12:12:01;;;;;;;17.45;10.05;;;;;;;11.16;61.62;98364.47;7751617;32;39295;-88
2022/11/17 12:16:29;;;;;;;15.10;9.18;;;;;;;11.44;61.45;98364.31;7752169;32;40921;-86
2022/11/17 12:21:10;;;;;;;18.23;8.63;;;;;;;11.53;60.81;98365.16;7750797;32;37965;-88
2022/11/17 12:25:30;;;;;;;12.80;7.80;;;;;;;11.96;59.95;98361.06;7751940;32;37530;-89
2022/11/17 12:29:46;;;;;;;12.73;7.60;;;;;;;12.28;57.51;98351.69;7759984;32;38793;-87
2022/11/17 12:34:06;;;;;;;13.52;8.73;;;;;;;12.06;58.62;98357.25;7761128;32;39959;-91
2022/11/17 12:38:23;;;;;;;15.02;8.07;;;;;;;12.11;58.53;98351.62;7764201;32;38769;-90
2022/11/17 12:42:59;;;;;;;14.50;7.72;;;;;;;11.92;58.36;98358.16;7764415;32;37923;-89
2022/11/17 12:47:21;;;;;;;11.88;7.82;;;;;;;11.52;58.73;98362.75;7753486;32;39436;-90
2022/11/17 12:51:49;;;;;;;13.45;7.32;;;;;;;12.16;57.75;98356.97;7764895;32;39038;-90
2022/11/17 12:56:34;;;;;;;13.95;7.90;;;;;;;13.39;54.95;98346.87;7750645;32;38563;-92
2022/11/17 13:01:12;;;;;;;13.95;8.00;;;;;;;13.15;54.44;98345.44;7751258;32;37858;-92
2022/11/17 13:05:29;;;;;;;12.43;7.03;;;;;;;13.06;54.17;98350.13;7764592;32;39479;-92
2022/11/17 13:09:50;;;;;;;14.32;7.60;;;;;;;12.96;54.64;98356.72;7764429;32;39486;-92
2022/11/17 13:14:16;;;;;;;15.63;7.57;;;;;;;14.17;52.35;98365.75;7764291;32;38686;-92
2022/11/17 13:18:37;;;;;;;14.63;7.53;;;;;;;14.13;50.11;98375.78;7764421;32;37165;-91
2022/11/17 13:23:05;;;;;;;12.48;7.12;;;;;;;13.87;51.69;98376.69;7764417;32;39169;-91
2022/11/17 13:27:27;;;;;;;13.43;6.15;;;;;;;14.30;51.16;98374.06;7764186;32;39914;-91
2022/11/17 13:31:43;;;;;;;11.23;6.10;;;;;;;14.56;48.99;98373.94;7764035;32;38496;-92
2022/11/17 13:36:19;;;;;;;12.95;6.00;;;;;;;14.57;49.39;98376.34;7764005;32;36803;-92
2022/11/17 13:40:36;;;;;;;10.73;5.60;;;;;;;14.58;48.88;98385.37;7763935;32;39036;-91
2022/11/17 13:44:57;;;;;;;12.05;6.72;;;;;;;14.03;48.98;98381.62;7737211;32;40741;-92
2022/11/17 13:49:32;;;;;;;10.43;5.82;;;;;;;14.27;49.26;98392.78;7749877;32;36865;-91
2022/11/17 13:54:10;;;;;;;11.30;6.78;;;;;;;13.99;49.78;98394.38;7749758;32;37461;-91
2022/11/17 13:58:39;;;;;;;10.43;5.82;;;;;;;14.28;48.98;98397.16;7750505;32;39486;-92
2022/11/17 14:03:02;;;;;;;10.02;5.70;;;;;;;16.92;42.32;98376.87;7763250;32;39965;-91
2022/11/17 14:07:29;;;;;;;10.70;6.32;;;;;;;18.25;39.86;98374.91;7750723;32;37993;-92
2022/11/17 14:11:46;;;;;;;10.95;6.47;;;;;;;16.17;43.75;98389.09;7752977;32;37226;-92
2022/11/17 14:16:02;;;;;;;12.52;7.37;;;;;;;15.05;46.71;98387.94;7766947;32;39363;-92
2022/11/17 14:20:25;;;;;;;11.48;7.22;;;;;;;14.02;49.14;98396.44;7740323;32;39974;-92
2022/11/17 14:24:41;;;;;;;11.65;6.93;;;;;;;13.64;50.51;98402.69;7766653;32;38723;-91
2022/11/17 14:29:01;;;;;;;16.73;8.40;;;;;;;13.36;51.95;98405.81;7766677;32;36781;-92
2022/11/17 14:33:18;;;;;;;14.60;8.05;;;;;;;13.16;51.82;98404.53;7753068;32;39872;-92
2022/11/17 14:37:34;;;;;;;17.85;7.78;;;;;;;12.66;53.56;98411.25;7752663;32;40038;-92
2022/11/17 14:41:50;;;;;;;13.25;7.30;;;;;;;12.65;53.18;98404.16;7766225;32;37882;-92
2022/11/17 14:46:16;;;;;;;13.38;7.95;;;;;;;12.90;53.58;98390.81;7766160;32;37221;-88
2022/11/17 14:50:33;;;;;;;13.73;8.07;;;;;;;12.39;54.98;98390.44;7751197;32;40180;-89
2022/11/17 14:54:49;;;;;;;13.05;8.00;;;;;;;12.30;54.59;98395.09;7763833;32;39485;-91
2022/11/17 14:59:06;;;;;;;13.73;7.97;;;;;;;11.95;55.84;98384.84;7766029;32;37555;-92
2022/11/17 15:03:22;;;;;;;13.02;7.55;;;;;;;11.63;57.16;98392.19;7766736;32;37013;-93
2022/11/17 15:07:38;;;;;;;12.15;7.85;;;;;;;12.18;55.79;98398.41;7752893;32;39300;-93
2022/11/17 15:11:55;;;;;;;14.27;8.00;;;;;;;12.43;54.76;98385.13;7770673;32;40780;-91
2022/11/17 15:16:11;;;;;;;16.30;9.52;;;;;;;11.92;56.17;98384.66;7768161;32;38727;-92
2022/11/17 15:20:28;;;;;;;14.85;8.80;;;;;;;11.85;56.35;98404.19;7757032;32;37981;-91
2022/11/17 15:24:45;;;;;;;18.58;10.57;;;;;;;11.56;57.05;98419.12;7770200;32;40090;-92
2022/11/17 15:29:01;;;;;;;23.00;10.88;;;;;;;11.74;57.13;98413.75;7757222;32;40355;-91
2022/11/17 15:33:18;;;;;;;19.10;10.90;;;;;;;11.40;58.79;98410.53;7771515;32;38000;-89
2022/11/17 15:37:34;;;;;;;19.40;11.15;;;;;;;11.61;57.98;98393.63;7755547;32;37482;-90
2022/11/17 15:41:50;;;;;;;17.20;10.40;;;;;;;10.98;60.50;98395.44;7770033;32;39615;-91
2022/11/17 15:46:09;;;;;;;19.25;11.45;;;;;;;11.14;60.14;98396.72;7772740;32;40292;-92
2022/11/17 15:50:28;;;;;;;21.58;12.60;;;;;;;11.11;60.12;98378.22;7771276;32;38919;-90
2022/11/17 15:54:44;;;;;;;19.52;12.20;;;;;;;11.00;60.38;98382.28;7761340;32;38294;-94
2022/11/17 15:59:02;;;;;;;20.45;12.00;;;;;;;10.87;60.71;98384.78;7771054;32;40348;-91
2022/11/17 16:03:18;;;;;;;19.05;12.07;;;;;;;11.37;58.65;98369.41;7768117;32;39935;-90
2022/11/17 16:07:34;;;;;;;19.90;11.05;;;;;;;10.71;60.68;98384.31;7764917;32;38689;-91
2022/11/17 16:11:51;;;;;;;25.67;13.30;;;;;;;10.75;60.90;98381.78;7768043;32;37344;-92
2022/11/17 16:16:11;;;;;;;24.12;13.30;;;;;;;10.81;60.58;98385.97;7773832;32;39652;-90
2022/11/17 16:20:27;;;;;;;19.23;11.32;;;;;;;10.90;60.61;98400.53;7756654;32;40512;-92
2022/11/17 16:24:43;;;;;;;20.00;11.05;;;;;;;10.68;61.51;98397.75;7767031;32;37854;-92
2022/11/17 16:29:01;;;;;;;21.08;13.07;;;;;;;10.67;61.48;98396.12;7765104;32;37354;-90
2022/11/17 16:33:17;;;;;;;20.12;11.10;;;;;;;10.21;62.23;98405.22;7763788;32;39034;-89
2022/11/17 16:37:34;;;;;;;22.62;12.57;;;;;;;9.91;63.20;98418.34;7766435;32;39949;-90
2022/11/17 16:41:51;;;;;;;75.05;43.22;;;;;;;10.56;61.03;98422.81;7766350;32;38000;-91
2022/11/17 16:46:29;;;;;;;34.55;22.58;;;;;;;10.55;61.44;98414.94;7765238;32;37190;-92
2022/11/17 16:50:46;;;;;;;41.65;31.30;;;;;;;10.83;61.11;98421.13;7764424;32;39389;-91
2022/11/17 16:55:02;;;;;;;20.50;12.98;;;;;;;10.73;61.49;98427.62;7763838;32;40082;-91
2022/11/17 16:59:20;;;;;;;20.05;11.80;;;;;;;10.32;63.31;98412.12;7750378;32;38603;-91
2022/11/17 17:03:36;;;;;;;19.15;12.75;;;;;;;10.98;61.10;98420.78;7764424;32;37918;-89
2022/11/17 17:07:53;;;;;;;18.75;11.75;;;;;;;10.66;62.44;98443.59;7764132;32;39648;-89
2022/11/17 17:12:10;;;;;;;19.00;11.35;;;;;;;10.65;62.42;98456.41;7763915;32;39741;-89
2022/11/17 17:16:26;;;;;;;23.12;12.63;;;;;;;10.56;63.17;98460.16;7763854;32;38658;-91
2022/11/17 17:20:52;;;;;;;25.23;13.10;;;;;;;10.77;62.82;98464.06;7750073;32;37392;-92
2022/11/17 17:25:09;;;;;;;22.17;12.80;;;;;;;11.22;60.83;98449.69;7764001;32;39268;-89
2022/11/17 17:29:26;;;;;;;22.10;13.30;;;;;;;10.75;62.04;98446.41;7763442;32;40693;-90
2022/11/17 17:33:43;;;;;;;22.83;13.93;;;;;;;11.00;61.88;98453.19;7763328;32;38656;-88
2022/11/17 17:38:00;;;;;;;19.98;12.13;;;;;;;10.88;61.87;98445.53;7763522;32;37824;-91
2022/11/17 17:42:17;;;;;;;21.02;11.77;;;;;;;10.77;62.83;98442.25;7764108;32;39356;-89
2022/11/17 17:46:36;;;;;;;17.62;10.85;;;;;;;10.73;63.21;98438.53;7766782;32;39734;-88
2022/11/17 17:50:53;;;;;;;20.30;11.40;;;;;;;10.90;62.86;98438.69;7753001;32;38768;-92
2022/11/17 17:55:10;;;;;;;17.40;11.43;;;;;;;10.63;63.51;98438.75;7766818;32;36831;-91
2022/11/17 17:59:27;;;;;;;19.92;11.60;;;;;;;10.78;62.95;98429.41;7766523;32;39502;-91
2022/11/17 18:03:46;;;;;;;17.35;10.23;;;;;;;10.59;64.11;98411.31;7766873;32;39866;-90
2022/11/17 18:08:06;;;;;;;16.65;9.85;;;;;;;10.73;63.41;98416.72;7766921;32;38029;-91
2022/11/17 18:12:22;;;;;;;21.15;11.35;;;;;;;10.62;63.83;98409.88;7766561;32;38075;-91
2022/11/17 18:16:39;;;;;;;15.10;10.57;;;;;;;10.51;64.02;98404.62;7767501;32;39349;-91
2022/11/17 18:21:02;;;;;;;19.75;11.50;;;;;;;10.56;63.40;98413.84;7768035;32;39971;-91
2022/11/17 18:25:18;;;;;;;16.60;10.70;;;;;;;10.72;63.00;98415.09;7766750;32;37906;-93
2022/11/17 18:29:35;;;;;;;16.90;11.12;;;;;;;10.90;62.48;98400.53;7766790;32;37251;-91
2022/11/17 18:33:56;;;;;;;16.48;10.77;;;;;;;10.72;62.94;98412.38;7768268;32;39387;-91
2022/11/17 18:38:13;;;;;;;16.62;10.52;;;;;;;10.56;62.92;98411.09;7767057;32;39835;-93
2022/11/17 18:42:30;;;;;;;16.00;9.77;;;;;;;10.93;61.77;98392.84;7753909;32;38502;-92
2022/11/17 18:46:47;;;;;;;17.10;9.43;;;;;;;10.77;62.55;98406.00;7759522;32;38023;-90
2022/11/17 18:51:08;;;;;;;14.57;9.20;;;;;;;10.88;62.20;98402.75;7767597;32;39906;-89
2022/11/17 18:55:39;;;;;;;16.02;9.77;;;;;;;10.40;63.62;98407.87;7752451;32;40728;-88
2022/11/17 18:59:55;;;;;;;16.17;10.18;;;;;;;10.93;62.11;98398.28;7766018;32;37574;-90
2022/11/17 19:04:17;;;;;;;19.62;11.70;;;;;;;10.63;62.40;98406.84;7765939;32;37245;-90
2022/11/17 19:08:35;;;;;;;19.50;11.75;;;;;;;10.73;62.27;98410.44;7751865;32;39590;-89
2022/11/17 19:12:51;;;;;;;26.75;13.75;;;;;;;10.95;61.55;98398.78;7752241;32;38436;-93
2022/11/17 19:17:07;;;;;;;21.62;12.73;;;;;;;10.71;62.42;98403.41;7767415;32;37915;-92
2022/11/17 19:21:26;;;;;;;20.08;13.07;;;;;;;10.88;62.06;98382.84;7739743;32;37425;-91
2022/11/17 19:25:44;;;;;;;22.60;13.32;;;;;;;10.83;62.67;98375.59;7768667;32;38759;-92
2022/11/17 19:30:00;;;;;;;19.70;12.35;;;;;;;10.42;63.92;98381.94;7769175;32;39299;-90
2022/11/17 19:34:17;;;;;;;17.35;11.70;;;;;;;10.49;63.47;98371.44;7766020;32;38206;-89
2022/11/17 19:38:34;;;;;;;19.05;11.73;;;;;;;10.73;62.66;98375.84;7766048;32;38507;-89
2022/11/17 19:42:50;;;;;;;18.05;10.32;;;;;;;10.37;63.52;98382.06;7765463;32;39240;-88
2022/11/17 19:47:06;;;;;;;20.25;11.82;;;;;;;10.56;62.75;98384.66;7766063;32;40764;-89
2022/11/17 19:51:31;;;;;;;20.55;11.85;;;;;;;10.15;64.20;98397.16;7764667;32;38005;-90
2022/11/17 19:55:47;;;;;;;17.25;10.70;;;;;;;10.63;62.85;98406.03;7751741;32;37357;-89
2022/11/17 20:00:04;;;;;;;21.48;11.50;;;;;;;10.48;63.55;98413.41;7751230;32;39002;-89
2022/11/17 20:04:20;;;;;;;19.25;12.02;;;;;;;10.28;64.64;98406.44;7750795;32;40816;-91
2022/11/17 20:08:37;;;;;;;21.45;12.65;;;;;;;10.24;65.10;98386.38;7765002;32;38033;-90
2022/11/17 20:12:53;;;;;;;35.60;17.77;;;;;;;10.66;63.78;98387.16;7764623;32;37081;-90
2022/11/17 20:17:09;;;;;;;22.30;13.00;;;;;;;10.30;64.52;98387.09;7764995;32;39905;-89
2022/11/17 20:21:27;;;;;;;21.58;12.48;;;;;;;10.27;64.75;98401.31;7764993;32;40544;-90
2022/11/17 20:25:44;;;;;;;18.17;10.68;;;;;;;10.44;64.58;98404.25;7751078;32;38938;-90
2022/11/17 20:30:01;;;;;;;20.23;12.48;;;;;;;10.31;64.76;98410.47;7764734;32;37864;-89
2022/11/17 20:34:18;;;;;;;20.50;11.98;;;;;;;10.43;64.59;98405.34;7764595;32;39667;-89
2022/11/17 20:38:37;;;;;;;21.95;11.63;;;;;;;10.55;64.19;98423.09;7761522;32;40895;-89